createdAt,value
2018-12-15T00:01:53.198Z,12.90
2018-12-15T00:04:21.520Z,13.03
2018-12-15T00:06:49.786Z,13.37
2018-12-15T00:09:18.072Z,16.03
2018-12-15T00:11:46.449Z,14.70
2018-12-15T00:14:14.827Z,13.97
2018-12-15T00:16:43.194Z,11.87
2018-12-15T00:19:11.454Z,13.17
2018-12-15T00:21:39.993Z,14.03
2018-12-15T00:24:08.234Z,11.73
2018-12-15T00:26:36.563Z,12.63
2018-12-15T00:29:04.870Z,12.67
2018-12-15T00:31:33.207Z,12.73
2018-12-15T00:34:01.416Z,12.80
2018-12-15T00:36:29.651Z,13.20
2018-12-15T00:38:57.926Z,13.37
2018-12-15T00:41:26.137Z,12.30
2018-12-15T00:43:54.386Z,13.33
2018-12-15T00:46:22.642Z,12.60
2018-12-15T00:48:50.935Z,12.53
2018-12-15T00:51:19.206Z,12.97
2018-12-15T00:53:47.416Z,13.30
2018-12-15T00:56:15.648Z,13.13
2018-12-15T00:58:43.955Z,12.67
2018-12-15T01:01:12.272Z,12.67
2018-12-15T01:03:40.700Z,12.30
2018-12-15T01:06:09.926Z,12.60
2018-12-15T01:08:38.246Z,12.97
2018-12-15T01:11:06.583Z,13.47
2018-12-15T01:13:35.235Z,12.87
2018-12-15T01:16:04.206Z,12.97
2018-12-15T01:18:32.830Z,12.63
2018-12-15T01:21:01.103Z,12.77
2018-12-15T01:23:29.382Z,13.43
2018-12-15T01:25:57.602Z,12.70
2018-12-15T01:28:25.835Z,12.50
2018-12-15T01:30:54.332Z,12.07
2018-12-15T01:33:22.616Z,12.50
2018-12-15T01:35:50.825Z,12.43
2018-12-15T01:38:19.148Z,12.60
2018-12-15T01:40:47.365Z,11.80
2018-12-15T01:43:15.598Z,11.37
2018-12-15T01:45:43.805Z,12.13
2018-12-15T01:48:12.034Z,12.63
2018-12-15T01:53:14.750Z,11.80
2018-12-15T01:55:42.995Z,12.17
2018-12-15T01:58:11.237Z,12.97
2018-12-15T02:00:39.497Z,12.00
2018-12-15T02:03:14.037Z,11.43
2018-12-15T02:05:42.368Z,12.20
2018-12-15T02:08:10.589Z,10.67
2018-12-15T02:10:38.836Z,11.97
2018-12-15T02:13:07.073Z,11.60
2018-12-15T02:15:35.423Z,12.80
2018-12-15T02:18:03.662Z,13.43
2018-12-15T02:20:32.027Z,15.93
2018-12-15T02:23:00.243Z,15.03
2018-12-15T02:25:28.602Z,13.83
2018-12-15T02:27:56.814Z,13.60
2018-12-15T02:30:34.960Z,13.83
2018-12-15T02:33:03.217Z,13.47
2018-12-15T02:35:31.513Z,13.33
2018-12-15T02:37:59.821Z,12.70
2018-12-15T02:40:28.056Z,12.33
2018-12-15T02:42:56.245Z,11.93
2018-12-15T02:45:24.630Z,11.93
2018-12-15T02:47:52.885Z,12.43
2018-12-15T02:50:21.112Z,11.63
2018-12-15T02:52:49.305Z,13.10
2018-12-15T02:55:17.498Z,14.00
2018-12-15T02:57:45.843Z,12.37
2018-12-15T03:00:14.180Z,12.57
2018-12-15T03:02:42.497Z,12.80
2018-12-15T03:05:10.839Z,12.53
2018-12-15T03:07:39.123Z,13.37
2018-12-15T03:10:07.601Z,13.80
2018-12-15T03:12:35.878Z,13.70
2018-12-15T03:15:04.522Z,12.53
2018-12-15T03:17:32.858Z,13.60
2018-12-15T03:20:01.994Z,13.33
2018-12-15T03:22:30.353Z,13.73
2018-12-15T03:24:58.644Z,14.00
2018-12-15T03:27:27.488Z,13.57
2018-12-15T03:29:55.742Z,14.97
2018-12-15T03:32:24.143Z,14.20
2018-12-15T03:34:55.370Z,15.60
2018-12-15T03:37:23.572Z,13.77
2018-12-15T03:39:51.918Z,14.93
2018-12-15T03:42:20.227Z,13.93
2018-12-15T03:44:48.431Z,15.20
2018-12-15T03:47:16.776Z,15.63
2018-12-15T03:49:45.129Z,14.67
2018-12-15T03:52:13.537Z,15.23
2018-12-15T03:54:42.032Z,16.10
2018-12-15T03:57:10.266Z,16.13
2018-12-15T03:59:38.945Z,15.07
2018-12-15T04:02:07.670Z,16.60
2018-12-15T04:04:36.301Z,15.57
2018-12-15T04:07:04.616Z,17.07
2018-12-15T04:09:32.932Z,17.27
2018-12-15T04:12:01.216Z,16.60
2018-12-15T04:14:29.504Z,15.87
2018-12-15T04:16:57.840Z,16.10
2018-12-15T04:19:26.073Z,15.73
2018-12-15T04:22:04.559Z,17.93
2018-12-15T04:24:32.786Z,18.10
2018-12-15T04:27:01.231Z,18.10
2018-12-15T04:29:29.456Z,18.10
2018-12-15T04:31:57.681Z,16.97
2018-12-15T04:34:25.997Z,18.13
2018-12-15T04:36:54.265Z,19.13
2018-12-15T04:39:22.486Z,17.53
2018-12-15T04:41:50.680Z,17.33
2018-12-15T04:44:19.188Z,17.83
2018-12-15T04:46:48.514Z,17.13
2018-12-15T04:49:16.769Z,18.47
2018-12-15T04:51:45.088Z,18.33
2018-12-15T04:54:13.551Z,18.80
2018-12-15T04:56:41.933Z,19.77
2018-12-15T04:59:10.453Z,19.73
2018-12-15T05:01:38.699Z,18.47
2018-12-15T05:04:06.897Z,19.63
2018-12-15T05:06:35.143Z,18.50
2018-12-15T05:09:03.460Z,19.60
2018-12-15T05:11:31.727Z,19.23
2018-12-15T05:13:59.955Z,19.03
2018-12-15T05:16:28.280Z,19.10
2018-12-15T05:18:56.523Z,19.43
2018-12-15T05:21:24.800Z,19.70
2018-12-15T05:23:53.187Z,18.37
2018-12-15T05:26:21.437Z,20.03
2018-12-15T05:28:49.657Z,20.07
2018-12-15T05:31:17.936Z,20.13
2018-12-15T05:33:46.185Z,19.70
2018-12-15T05:36:14.427Z,18.93
2018-12-15T05:38:42.743Z,19.63
2018-12-15T05:41:10.988Z,20.70
2018-12-15T05:43:39.297Z,21.83
2018-12-15T05:46:07.513Z,19.50
2018-12-15T05:48:35.775Z,20.07
2018-12-15T05:51:04.021Z,19.53
2018-12-15T05:53:32.237Z,20.07
2018-12-15T05:56:00.463Z,19.40
2018-12-15T05:58:28.686Z,21.30
2018-12-15T06:00:56.922Z,20.43
2018-12-15T06:03:25.209Z,20.40
2018-12-15T06:05:53.434Z,21.37
2018-12-15T06:08:21.633Z,20.20
2018-12-15T06:10:49.955Z,22.07
2018-12-15T06:13:18.181Z,22.83
2018-12-15T06:15:46.424Z,20.57
2018-12-15T06:18:14.650Z,22.50
2018-12-15T06:20:43.008Z,21.93
2018-12-15T06:23:11.592Z,21.53
2018-12-15T06:25:39.840Z,20.80
2018-12-15T06:28:08.044Z,21.10
2018-12-15T06:30:36.265Z,22.03
2018-12-15T06:33:04.539Z,22.40
2018-12-15T06:35:32.856Z,21.93
2018-12-15T06:38:01.081Z,23.10
2018-12-15T06:40:29.330Z,22.90
2018-12-15T06:42:57.566Z,21.70
2018-12-15T06:45:25.783Z,23.33
2018-12-15T06:47:54.047Z,22.90
2018-12-15T06:50:22.250Z,22.03
2018-12-15T06:52:50.530Z,22.50
2018-12-15T06:55:18.748Z,23.50
2018-12-15T06:57:46.953Z,22.03
2018-12-15T07:00:15.633Z,23.90
2018-12-15T07:02:43.981Z,22.77
2018-12-15T07:05:12.289Z,23.57
2018-12-15T07:07:40.505Z,23.87
2018-12-15T07:10:08.776Z,23.77
2018-12-15T07:12:36.994Z,22.57
2018-12-15T07:15:05.956Z,22.10
2018-12-15T07:17:34.286Z,24.43
2018-12-15T07:20:02.572Z,23.40
2018-12-15T07:22:30.894Z,24.50
2018-12-15T07:24:59.177Z,22.53
2018-12-15T07:27:27.398Z,24.37
2018-12-15T07:29:55.674Z,23.10
2018-12-15T07:32:23.922Z,22.97
2018-12-15T07:34:52.160Z,22.50
2018-12-15T07:37:20.394Z,24.37
2018-12-15T07:39:48.721Z,23.27
2018-12-15T07:42:16.936Z,23.67
2018-12-15T07:44:45.222Z,23.70
2018-12-15T07:47:13.576Z,24.40
2018-12-15T07:49:41.802Z,23.83
2018-12-15T07:52:10.053Z,23.00
2018-12-15T07:54:38.433Z,22.80
2018-12-15T07:57:06.710Z,24.90
2018-12-15T07:59:34.959Z,23.13
2018-12-15T08:02:03.172Z,23.37
2018-12-15T08:04:31.442Z,22.97
2018-12-15T08:06:59.671Z,23.50
2018-12-15T08:09:27.984Z,22.57
2018-12-15T08:12:01.712Z,23.77
2018-12-15T08:14:30.033Z,23.53
2018-12-15T08:16:58.294Z,23.77
2018-12-15T08:19:26.627Z,23.87
2018-12-15T08:21:54.946Z,24.30
2018-12-15T08:24:23.461Z,22.00
2018-12-15T08:29:44.914Z,23.47
2018-12-15T08:32:13.174Z,23.30
2018-12-15T08:34:46.980Z,22.10
2018-12-15T08:37:15.242Z,20.87
2018-12-15T08:39:43.562Z,21.57
2018-12-15T08:42:11.811Z,23.30
2018-12-15T08:44:40.099Z,21.13
2018-12-15T08:47:08.384Z,20.57
2018-12-15T08:49:36.624Z,22.47
2018-12-15T08:52:04.980Z,20.53
2018-12-15T08:54:33.286Z,22.97
2018-12-15T08:57:01.682Z,22.93
2018-12-15T08:59:30.048Z,20.70
2018-12-15T09:01:58.287Z,22.47
2018-12-15T09:04:26.539Z,21.70
2018-12-15T09:06:54.763Z,20.10
2018-12-15T09:09:23.166Z,22.13
2018-12-15T09:11:52.409Z,19.93
2018-12-15T09:14:20.667Z,20.67
2018-12-15T09:16:48.904Z,21.27
2018-12-15T09:19:17.173Z,21.40
2018-12-15T09:21:45.491Z,21.17
2018-12-15T09:24:13.925Z,20.00
2018-12-15T09:26:42.219Z,19.67
2018-12-15T09:29:10.497Z,20.13
2018-12-15T09:31:38.800Z,20.70
2018-12-15T09:34:07.245Z,19.70
2018-12-15T09:36:35.600Z,20.60
2018-12-15T09:39:04.974Z,19.40
2018-12-15T09:41:33.240Z,19.57
2018-12-15T09:44:01.608Z,18.70
2018-12-15T09:46:29.940Z,20.23
2018-12-15T09:48:58.208Z,19.30
2018-12-15T09:51:26.452Z,18.87
2018-12-15T09:53:54.757Z,19.23
2018-12-15T09:56:22.991Z,18.70
2018-12-15T09:58:51.259Z,18.77
2018-12-15T10:01:19.620Z,17.80
2018-12-15T10:03:47.855Z,18.50
2018-12-15T10:06:16.078Z,16.30
2018-12-15T10:08:44.307Z,16.77
2018-12-15T10:11:12.559Z,16.80
2018-12-15T10:13:40.880Z,18.13
2018-12-15T10:16:09.258Z,18.13
2018-12-15T10:18:37.606Z,18.03
2018-12-15T10:21:05.962Z,16.97
2018-12-15T10:23:34.236Z,14.97
2018-12-15T10:26:02.543Z,17.90
2018-12-15T10:28:30.942Z,16.17
2018-12-15T10:31:04.661Z,16.10
2018-12-15T10:33:32.966Z,18.00
2018-12-15T10:36:01.335Z,17.93
2018-12-15T10:38:29.554Z,19.30
2018-12-15T10:40:57.875Z,17.60
2018-12-15T10:43:26.099Z,17.47
2018-12-15T10:45:54.373Z,15.83
2018-12-15T10:48:22.617Z,16.43
2018-12-15T10:50:50.919Z,16.40
2018-12-15T10:53:19.155Z,17.37
2018-12-15T10:55:47.563Z,19.20
2018-12-15T10:58:15.876Z,15.97
2018-12-15T11:00:49.414Z,14.33
2018-12-15T11:03:17.688Z,15.23
2018-12-15T11:05:45.929Z,13.40
2018-12-15T11:08:14.188Z,14.80
2018-12-15T11:10:42.455Z,14.23
2018-12-15T11:13:10.751Z,13.80
2018-12-15T11:15:39.246Z,14.47
2018-12-15T11:18:07.492Z,15.13
2018-12-15T11:20:35.831Z,13.90
2018-12-15T11:23:04.187Z,12.30
2018-12-15T11:25:32.556Z,14.27
2018-12-15T11:28:00.825Z,13.87
2018-12-15T11:30:29.145Z,12.87
2018-12-15T11:32:57.450Z,13.07
2018-12-15T11:35:25.661Z,12.93
2018-12-15T11:37:53.912Z,13.20
2018-12-15T11:40:22.204Z,13.80
2018-12-15T11:42:50.492Z,13.70
2018-12-15T11:45:18.869Z,11.77
2018-12-15T11:47:47.141Z,12.07
2018-12-15T11:50:15.396Z,12.77
2018-12-15T11:52:43.643Z,13.13
2018-12-15T11:55:11.914Z,12.23
2018-12-15T11:57:40.239Z,12.90
2018-12-15T12:00:09.159Z,13.73
2018-12-15T12:02:37.544Z,11.93
2018-12-15T12:05:06.317Z,12.90
2018-12-15T12:07:34.583Z,12.50
2018-12-15T12:10:02.881Z,12.80
2018-12-15T12:12:31.862Z,13.47
2018-12-15T12:15:00.493Z,11.90
2018-12-15T12:17:28.799Z,12.93
2018-12-15T12:19:57.079Z,13.10
2018-12-15T12:22:25.299Z,16.70
2018-12-15T12:24:53.561Z,13.50
2018-12-15T12:27:21.829Z,12.90
2018-12-15T12:29:50.092Z,15.80
2018-12-15T12:32:18.341Z,12.67
2018-12-15T12:34:46.613Z,10.67
2018-12-15T12:37:14.842Z,11.33
2018-12-15T12:39:43.174Z,11.70
2018-12-15T12:42:11.393Z,13.70
2018-12-15T12:44:39.811Z,13.47
2018-12-15T12:47:08.116Z,12.03
2018-12-15T12:49:36.542Z,11.57
2018-12-15T12:52:04.885Z,10.33
2018-12-15T12:54:33.226Z,13.97
2018-12-15T12:57:01.598Z,10.20
2018-12-15T12:59:29.904Z,9.20
2018-12-15T13:01:58.199Z,7.23
2018-12-15T13:04:26.548Z,7.43
2018-12-15T13:06:54.862Z,7.77
2018-12-15T13:09:23.398Z,8.00
2018-12-15T13:11:51.861Z,15.23
2018-12-15T13:17:12.618Z,8.33
2018-12-15T13:19:40.934Z,7.80
2018-12-15T13:22:09.198Z,8.57
2018-12-15T13:24:37.513Z,9.83
2018-12-15T13:27:05.820Z,13.70
2018-12-15T13:29:34.250Z,10.87
2018-12-15T13:32:02.547Z,9.10
2018-12-15T13:34:30.802Z,8.03
2018-12-15T13:36:59.193Z,12.33
2018-12-15T13:39:27.540Z,8.83
2018-12-15T13:41:55.851Z,12.00
2018-12-15T13:44:24.107Z,8.13
2018-12-15T13:46:52.409Z,7.83
2018-12-15T13:49:20.761Z,7.20
2018-12-15T13:51:49.048Z,8.40
2018-12-15T13:54:17.319Z,8.23
2018-12-15T13:56:45.587Z,8.13
2018-12-15T13:59:13.896Z,7.17
2018-12-15T14:01:42.148Z,7.80
2018-12-15T14:04:10.479Z,9.63
2018-12-15T14:06:38.702Z,13.47
2018-12-15T14:09:08.345Z,14.50
2018-12-15T14:11:36.600Z,13.70
2018-12-15T14:14:04.946Z,8.00
2018-12-15T14:16:33.227Z,9.80
2018-12-15T14:19:01.458Z,12.00
2018-12-15T14:21:29.699Z,9.87
2018-12-15T14:23:58.191Z,11.97
2018-12-15T14:26:26.647Z,10.13
2018-12-15T14:28:54.964Z,10.13
2018-12-15T14:31:23.399Z,10.60
2018-12-15T14:33:51.638Z,9.93
2018-12-15T14:36:19.989Z,8.00
2018-12-15T14:38:48.389Z,13.27
2018-12-15T14:41:16.744Z,12.67
2018-12-15T14:43:45.396Z,13.77
2018-12-15T14:46:13.751Z,12.87
2018-12-15T14:48:42.068Z,11.77
2018-12-15T14:51:10.358Z,11.80
2018-12-15T14:53:38.647Z,10.20
2018-12-15T14:56:07.129Z,13.90
2018-12-15T14:58:35.622Z,10.37
2018-12-15T15:01:04.270Z,15.13
2018-12-15T15:03:32.541Z,16.90
2018-12-15T15:06:00.872Z,14.80
2018-12-15T15:08:29.193Z,13.63
2018-12-15T15:10:57.463Z,10.93
2018-12-15T15:13:25.843Z,9.93
2018-12-15T15:15:54.178Z,10.77
2018-12-15T15:18:22.536Z,10.20
2018-12-15T15:20:50.951Z,15.90
2018-12-15T15:23:19.216Z,16.87
2018-12-15T15:25:47.453Z,13.10
2018-12-15T15:28:15.710Z,18.13
2018-12-15T15:30:43.950Z,12.77
2018-12-15T15:33:12.210Z,11.23
2018-12-15T15:35:40.464Z,9.87
2018-12-15T15:38:08.758Z,12.00
2018-12-15T15:40:37.085Z,11.17
2018-12-15T15:43:05.458Z,17.37
2018-12-15T15:45:33.947Z,11.33
2018-12-15T15:48:02.332Z,10.77
2018-12-15T15:50:36.414Z,14.77
2018-12-15T15:53:01.647Z,17.10
2018-12-15T15:55:30.244Z,16.77
2018-12-15T15:57:58.750Z,15.60
2018-12-15T16:00:27.157Z,11.77
2018-12-15T16:02:55.470Z,11.67
2018-12-15T16:05:23.755Z,15.17
2018-12-15T16:07:52.141Z,12.40
2018-12-15T16:10:20.437Z,13.87
2018-12-15T16:12:48.842Z,15.07
2018-12-15T16:15:17.168Z,15.47
2018-12-15T16:17:45.474Z,15.77
2018-12-15T16:20:13.840Z,10.37
2018-12-15T16:22:42.112Z,12.70
2018-12-15T16:25:10.534Z,13.17
2018-12-15T16:27:38.854Z,22.80
2018-12-15T16:30:11.366Z,21.53
2018-12-15T16:32:39.842Z,15.40
2018-12-15T16:35:08.269Z,17.37
2018-12-15T16:37:36.518Z,17.23
2018-12-15T16:40:06.106Z,16.90
2018-12-15T16:42:34.494Z,12.43
2018-12-15T16:45:02.799Z,17.43
2018-12-15T16:47:31.089Z,13.33
2018-12-15T16:49:59.406Z,16.70
2018-12-15T16:52:29.153Z,13.27
2018-12-15T16:54:57.971Z,15.73
2018-12-15T16:57:26.262Z,12.70
2018-12-15T16:59:54.683Z,12.73
2018-12-15T17:02:22.975Z,12.30
2018-12-15T17:04:51.419Z,16.67
2018-12-15T17:07:19.724Z,14.13
2018-12-15T17:09:47.994Z,16.60
2018-12-15T17:12:16.284Z,17.80
2018-12-15T17:14:44.637Z,14.50
2018-12-15T17:17:12.883Z,13.03
2018-12-15T17:19:41.142Z,12.97
2018-12-15T17:22:09.514Z,13.87
2018-12-15T17:24:37.754Z,20.33
2018-12-15T17:27:06.431Z,15.00
2018-12-15T17:29:34.764Z,16.70
2018-12-15T17:32:03.080Z,17.83
2018-12-15T17:34:31.562Z,13.03
2018-12-15T17:37:00.256Z,17.50
2018-12-15T17:39:28.730Z,14.13
2018-12-15T17:41:57.142Z,16.37
2018-12-15T17:44:25.753Z,13.07
2018-12-15T17:46:54.129Z,12.93
2018-12-15T17:49:22.744Z,21.53
2018-12-15T17:51:51.020Z,17.30
2018-12-15T17:54:19.324Z,13.00
2018-12-15T17:56:47.633Z,18.07
2018-12-15T17:59:15.884Z,14.43
2018-12-15T18:01:44.136Z,19.37
2018-12-15T18:04:12.535Z,20.00
2018-12-15T18:06:40.956Z,16.33
2018-12-15T18:09:09.698Z,16.93
2018-12-15T18:11:38.033Z,16.30
2018-12-15T18:14:10.158Z,19.23
2018-12-15T18:16:38.504Z,18.57
2018-12-15T18:19:07.046Z,14.57
2018-12-15T18:21:35.319Z,14.50
2018-12-15T18:24:03.550Z,20.17
2018-12-15T18:26:31.919Z,15.93
2018-12-15T18:29:00.854Z,12.73
2018-12-15T18:31:29.830Z,16.33
2018-12-15T18:33:58.136Z,20.47
2018-12-15T18:36:26.406Z,17.97
2018-12-15T18:38:54.647Z,21.40
2018-12-15T18:41:23.036Z,22.73
2018-12-15T18:43:51.242Z,24.50
2018-12-15T18:46:19.499Z,21.00
2018-12-15T18:48:47.900Z,15.07
2018-12-15T18:51:16.593Z,14.63
2018-12-15T18:53:44.993Z,14.13
2018-12-15T18:56:13.391Z,17.17
2018-12-15T18:58:41.718Z,20.67
2018-12-15T19:01:10.093Z,16.50
2018-12-15T19:03:38.385Z,13.90
2018-12-15T19:06:06.720Z,23.37
2018-12-15T19:08:35.036Z,14.37
2018-12-15T19:11:03.325Z,20.87
2018-12-15T19:13:31.572Z,13.93
2018-12-15T19:15:59.988Z,17.77
2018-12-15T19:18:28.288Z,12.97
2018-12-15T19:20:56.670Z,11.47
2018-12-15T19:23:25.366Z,9.93
2018-12-15T19:25:54.339Z,8.63
2018-12-15T19:28:22.751Z,9.80
2018-12-15T19:30:51.109Z,9.03
2018-12-15T19:33:19.390Z,10.27
2018-12-15T19:35:47.698Z,8.73
2018-12-15T19:38:16.004Z,13.50
2018-12-15T19:40:57.256Z,11.50
2018-12-15T19:43:26.437Z,17.63
2018-12-15T19:45:54.929Z,15.47
2018-12-15T19:48:23.265Z,12.57
2018-12-15T19:50:51.569Z,11.30
2018-12-15T19:53:20.069Z,9.17
2018-12-15T19:55:48.328Z,8.57
2018-12-15T19:58:16.608Z,13.63
2018-12-15T20:00:44.870Z,12.70
2018-12-15T20:03:13.190Z,11.33
2018-12-15T20:05:41.480Z,19.17
2018-12-15T20:08:09.760Z,18.53
2018-12-15T20:10:38.052Z,11.63
2018-12-15T20:13:06.334Z,10.77
2018-12-15T20:15:34.720Z,10.47
2018-12-15T20:18:02.965Z,9.37
2018-12-15T20:20:31.232Z,11.27
2018-12-15T20:22:59.749Z,12.17
2018-12-15T20:25:28.033Z,10.93
2018-12-15T20:27:56.425Z,11.20
2018-12-15T20:30:24.871Z,10.10
2018-12-15T20:32:53.252Z,7.00
2018-12-15T20:35:21.533Z,12.40
2018-12-15T20:37:50.080Z,9.80
2018-12-15T20:40:18.413Z,11.50
2018-12-15T20:42:46.727Z,9.03
2018-12-15T20:45:15.076Z,10.80
2018-12-15T20:47:43.427Z,13.60
2018-12-15T20:53:04.563Z,11.13
2018-12-15T20:55:32.858Z,10.20
2018-12-15T20:58:01.125Z,12.20
2018-12-15T21:00:29.423Z,10.33
2018-12-15T21:02:57.723Z,11.60
2018-12-15T21:05:25.926Z,10.87
2018-12-15T21:07:54.224Z,10.57
2018-12-15T21:10:22.463Z,12.30
2018-12-15T21:12:50.838Z,12.03
2018-12-15T21:15:23.142Z,9.70
2018-12-15T21:17:51.453Z,15.03
2018-12-15T21:20:19.755Z,10.77
2018-12-15T21:22:48.053Z,9.60
2018-12-15T21:25:16.875Z,10.33
2018-12-15T21:27:45.189Z,8.70
2018-12-15T21:30:13.953Z,11.93
2018-12-15T21:32:42.213Z,11.90
2018-12-15T21:35:10.552Z,13.10
2018-12-15T21:37:39.280Z,12.70
2018-12-15T21:40:08.085Z,14.47
2018-12-15T21:42:36.370Z,14.20
2018-12-15T21:45:05.140Z,13.43
2018-12-15T21:47:33.537Z,11.03
2018-12-15T21:50:01.992Z,11.80
2018-12-15T21:52:30.608Z,10.03
2018-12-15T21:54:58.922Z,7.80
2018-12-15T21:57:27.407Z,10.20
2018-12-15T21:59:55.668Z,9.27
2018-12-15T22:02:24.087Z,10.37
2018-12-15T22:04:52.489Z,7.57
2018-12-15T22:07:20.821Z,9.60
2018-12-15T22:12:42.225Z,8.87
2018-12-15T22:15:10.653Z,8.13
2018-12-15T22:17:39.001Z,10.17
2018-12-15T22:20:10.049Z,9.93
2018-12-15T22:22:39.934Z,12.47
2018-12-15T22:25:08.269Z,14.13
2018-12-15T22:27:36.551Z,8.67
2018-12-15T22:30:05.527Z,11.37
2018-12-15T22:32:33.855Z,11.87
2018-12-15T22:35:02.139Z,12.57
2018-12-15T22:37:30.441Z,15.30
2018-12-15T22:39:58.675Z,14.53
2018-12-15T22:42:26.956Z,15.47
2018-12-15T22:44:55.357Z,11.80
2018-12-15T22:47:23.588Z,13.37
2018-12-15T22:49:51.893Z,13.23
2018-12-15T22:52:20.691Z,13.00
2018-12-15T22:54:48.973Z,14.23
2018-12-15T22:57:17.383Z,12.27
2018-12-15T22:59:45.691Z,14.33
2018-12-15T23:02:13.955Z,14.27
2018-12-15T23:04:42.173Z,14.47
2018-12-15T23:07:10.557Z,7.50
2018-12-15T23:09:38.842Z,14.67
2018-12-15T23:12:07.213Z,15.77
2018-12-15T23:14:35.576Z,15.47
2018-12-15T23:17:03.891Z,11.33
2018-12-15T23:19:32.219Z,14.63
2018-12-15T23:22:00.520Z,16.57
2018-12-15T23:24:28.821Z,13.87
2018-12-15T23:26:57.111Z,14.30
2018-12-15T23:29:25.447Z,15.33
2018-12-15T23:31:53.744Z,16.53
2018-12-15T23:34:22.481Z,17.87
2018-12-15T23:36:50.845Z,19.77
2018-12-15T23:39:19.161Z,17.57
2018-12-15T23:41:47.744Z,13.90
2018-12-15T23:44:16.021Z,14.87
2018-12-15T23:46:44.317Z,17.90
2018-12-15T23:49:12.519Z,13.23
2018-12-15T23:51:40.748Z,14.90
2018-12-15T23:54:08.997Z,17.63
2018-12-15T23:56:37.268Z,18.03
2018-12-15T23:59:05.641Z,17.90
